La Porte, IN

6:32 AM CDT on June 26, 2017 (GMT -0500)
La Porte Municipal

Weather History for KPPO - February, 2013

Change the Weather History Date:

Tuesday, February 26, 2013

  Actual Average (KSBN) Record (KSBN)
Temperature  
Mean Temperature 31 °F -  
Max Temperature 32 °F 39 °F 67 °F (1932)
Min Temperature 30 °F 21 °F -6 °F (1963)
Degree Days  
Heating Degree Days 34    
Moisture  
Dew Point 28 °F    
Average Humidity 87    
Maximum Humidity 100    
Minimum Humidity 66    
Precipitation  
Precipitation 0.10 in - - ()
Sea Level Pressure  
Sea Level Pressure 29.63 in    
Wind  
Wind Speed 12 mph (ENE)    
Max Wind Speed 24 mph    
Max Gust Speed 31 mph    
Visibility 7 miles    
Events Rain , Snow    
Averages and records for this station are not official NWS values.
T = Trace of Precipitation, MM = Missing Value Source: NWS Daily Summary

Daily Weather History Graph

Daily Weather History Graph

Search for Another Location

Airport or City:

Trip Planner

Search our weather history database for the weather conditions in past years. The results will help you decide how hot, cold, wet, or windy it might be!

Date:

Astronomy

Feb. 26, 2013 Rise Set
Actual Time 6:25 AM CST 5:34 PM CST
Civil Twilight 5:57 AM CST 6:02 PM CST
Nautical Twilight 5:25 AM CST 6:34 PM CST
Astronomical Twilight 4:53 AM CST 7:06 PM CST
Moon 6:52 PM CST 6:26 AM CST
Length of Visible Light 12h 04m
Length of Day
11h 08m
Full, 99% of the Moon is Illuminated
Feb 26
Full
Mar 4
Last Quarter
Mar 11
New
Mar 19
First Quarter
Mar 27
Full

Hourly Weather History & Observations

Time (CST) Temp. Windchill Dew Point Humidity Pressure Visibility Wind Dir Wind Speed Gust Speed Precip Events Conditions
12:15 AM 31.6 °F 23.1 °F 25.5 °F 78% 29.96 in 10.0 mi ENE 10.4 mph - N/A   Clear
12:35 AM 31.8 °F 22.3 °F 25.3 °F 77% 29.96 in 10.0 mi East 12.7 mph - N/A   Clear
12:55 AM 31.6 °F 21.6 °F 25.2 °F 77% 29.94 in 10.0 mi East 13.8 mph - N/A   Clear
1:15 AM 31.1 °F 21.9 °F 24.8 °F 77% 29.94 in 10.0 mi East 11.5 mph 17.3 mph N/A   Clear
1:35 AM 31.1 °F 20.9 °F 24.6 °F 77% 29.94 in 10.0 mi East 13.8 mph - N/A   Clear
1:55 AM 30.9 °F 19.8 °F 23.9 °F 75% 29.91 in 10.0 mi ENE 16.1 mph 21.9 mph N/A   Clear
2:15 AM 30.7 °F 20.9 °F 23.7 °F 75% 29.91 in 10.0 mi East 12.7 mph 19.6 mph N/A   Clear
2:35 AM 30.7 °F 20.0 °F 23.5 °F 75% 29.89 in 10.0 mi East 15.0 mph - N/A   Clear
2:55 AM 30.7 °F 20.0 °F 23.2 °F 74% 29.86 in 10.0 mi ENE 15.0 mph - N/A   Clear
3:15 AM 30.9 °F 19.4 °F 23.0 °F 72% 29.83 in 10.0 mi ENE 17.3 mph 23.0 mph N/A   Clear
3:35 AM 31.1 °F 20.1 °F 23.2 °F 72% 29.86 in 10.0 mi East 16.1 mph 21.9 mph N/A   Clear
3:55 AM 31.1 °F 20.1 °F 23.0 °F 72% 29.85 in 10.0 mi East 16.1 mph 20.7 mph N/A   Clear
4:15 AM 31.1 °F 20.1 °F 23.0 °F 72% 29.84 in 10.0 mi ENE 16.1 mph 20.7 mph N/A   Scattered Clouds
4:35 AM 31.1 °F 20.5 °F 23.0 °F 72% 29.82 in 10.0 mi ENE 15.0 mph 21.9 mph N/A   Mostly Cloudy
4:55 AM 31.1 °F 20.5 °F 23.0 °F 72% 29.81 in 10.0 mi ENE 15.0 mph 21.9 mph N/A   Mostly Cloudy
5:15 AM 31.3 °F 20.3 °F 22.8 °F 71% 29.78 in 10.0 mi ENE 16.1 mph 23.0 mph N/A   Scattered Clouds
5:35 AM 31.5 °F 19.8 °F 22.5 °F 69% 29.77 in 10.0 mi ENE 18.4 mph 25.3 mph N/A   Clear
5:55 AM 31.6 °F 19.7 °F 22.8 °F 70% 29.77 in 10.0 mi ENE 19.6 mph 25.3 mph N/A   Mostly Cloudy
6:15 AM 31.6 °F 19.7 °F 22.8 °F 70% 29.76 in 10.0 mi ENE 19.6 mph 26.5 mph N/A   Mostly Cloudy
6:35 AM 32.0 °F 18.9 °F 22.3 °F 67% 29.76 in 10.0 mi East 24.2 mph 28.8 mph N/A   Scattered Clouds
6:55 AM 32.0 °F 19.8 °F 22.5 °F 68% 29.76 in 10.0 mi East 20.7 mph 25.3 mph N/A   Clear
7:15 AM 32.2 °F 20.0 °F 22.6 °F 68% 29.77 in 10.0 mi East 20.7 mph 27.6 mph N/A   Clear
7:35 AM 32.0 °F 19.5 °F 22.5 °F 68% 29.75 in 10.0 mi East 21.9 mph 28.8 mph N/A   Clear
7:55 AM 32.2 °F 19.4 °F 22.6 °F 68% 29.73 in 10.0 mi East 23.0 mph 26.5 mph N/A   Mostly Cloudy
8:15 AM 32.5 °F 20.5 °F 22.6 °F 67% 29.71 in 10.0 mi East 20.7 mph 31.1 mph N/A   Overcast
8:35 AM 32.9 °F 20.7 °F 22.6 °F 66% 29.69 in 10.0 mi East 21.9 mph 31.1 mph N/A   Overcast
8:55 AM 32.4 °F 20.3 °F 24.4 °F 73% 29.65 in 7.0 mi ENE 20.7 mph 28.8 mph N/A   Overcast
9:15 AM 32.2 °F 21.1 °F 25.7 °F 77% 29.62 in 5.0 mi East 17.3 mph 24.2 mph N/A   Overcast
9:35 AM 32.2 °F 21.8 °F 26.2 °F 79% 29.61 in 5.0 mi East 15.0 mph 19.6 mph 0.01 in   Overcast
9:55 AM 32.4 °F 23.0 °F 26.6 °F 79% 29.59 in 7.0 mi East 12.7 mph 19.6 mph 0.01 in   Overcast
10:15 AM 32.5 °F 23.7 °F 27.1 °F 80% 29.59 in 10.0 mi East 11.5 mph - N/A   Overcast
10:35 AM 32.4 °F 23.5 °F 27.9 °F 83% 29.56 in 5.0 mi ENE 11.5 mph 16.1 mph N/A   Overcast
10:55 AM 32.5 °F 24.8 °F 28.2 °F 84% 29.56 in 5.0 mi East 9.2 mph - N/A   Overcast
11:15 AM 32.5 °F 27.1 °F 28.8 °F 86% 29.58 in 5.0 mi ESE 5.8 mph - N/A   Overcast
11:35 AM 32.5 °F 26.2 °F 29.3 °F 88% 29.59 in 4.0 mi ESE 6.9 mph - 0.01 in Snow Light Snow
11:55 AM 32.4 °F 25.3 °F 29.8 °F 90% 29.56 in 3.0 mi East 8.1 mph - 0.06 in Snow Light Snow
12:15 PM 32.4 °F 25.3 °F 30.2 °F 92% 29.55 in 5.0 mi East 8.1 mph - N/A   Overcast
12:35 PM 32.2 °F 25.0 °F 30.2 °F 92% 29.52 in 4.0 mi East 8.1 mph - N/A Snow Light Snow
12:55 PM 32.0 °F 24.8 °F 30.7 °F 95% 29.51 in 5.0 mi East 8.1 mph - 0.02 in   Overcast
1:15 PM 32.2 °F 26.7 °F 30.9 °F 95% 29.51 in 7.0 mi East 5.8 mph - N/A   Overcast
1:35 PM 32.2 °F 26.7 °F 30.9 °F 95% 29.50 in 7.0 mi East 5.8 mph - N/A Snow Light Snow
1:55 PM 32.2 °F 26.7 °F 30.9 °F 95% 29.49 in 4.0 mi ENE 5.8 mph - N/A Snow Light Snow
2:15 PM 32.0 °F 26.4 °F 31.1 °F 96% 29.49 in 3.0 mi ENE 5.8 mph - N/A Snow Light Snow
2:35 PM 32.0 °F 26.4 °F 31.5 °F 98% 29.49 in 2.5 mi ENE 5.8 mph - N/A Snow Light Snow
2:55 PM 32.0 °F 27.5 °F 31.6 °F 99% 29.49 in 3.0 mi ENE 4.6 mph - N/A Snow Light Snow
3:15 PM 32.0 °F 27.5 °F 31.8 °F 99% 29.49 in 2.0 mi ENE 4.6 mph - N/A Snow Light Snow
3:35 PM 32.0 °F 27.5 °F 32.0 °F 100% 29.48 in 3.0 mi ENE 4.6 mph - N/A Snow Light Snow
3:55 PM 32.2 °F 27.7 °F 32.0 °F 99% 29.49 in 3.0 mi ENE 4.6 mph - N/A Snow Light Snow
4:15 PM 32.2 °F 27.7 °F 32.0 °F 99% 29.49 in 3.0 mi ENE 4.6 mph - N/A Snow Light Snow
4:35 PM 32.2 °F 26.7 °F 32.0 °F 99% 29.49 in 3.0 mi ENE 5.8 mph - 0.01 in Snow Light Snow
4:55 PM 32.2 °F 23.8 °F 32.0 °F 99% 29.49 in 3.0 mi ENE 10.4 mph - 0.01 in Snow Light Snow
5:15 PM 32.2 °F 23.8 °F 32.0 °F 99% 29.49 in 4.0 mi ENE 10.4 mph - N/A Snow Light Snow
5:35 PM 32.2 °F 23.2 °F 32.0 °F 99% 29.49 in 4.0 mi ENE 11.5 mph - N/A   Overcast
5:55 PM 32.2 °F 24.4 °F 32.0 °F 99% 29.49 in 5.0 mi ENE 9.2 mph - N/A   Overcast
6:15 PM 32.2 °F 25.8 °F 32.0 °F 99% 29.49 in 7.0 mi ENE 6.9 mph - N/A   Overcast
6:35 PM 32.4 °F 24.6 °F 32.0 °F 99% 29.49 in 10.0 mi ENE 9.2 mph - N/A   Overcast
6:55 PM 32.4 °F 25.3 °F 32.0 °F 99% 29.49 in 7.0 mi NE 8.1 mph - N/A Snow Light Snow
7:15 PM 32.2 °F 24.4 °F 32.0 °F 99% 29.49 in 7.0 mi NE 9.2 mph - N/A Snow Light Snow
7:35 PM 32.2 °F 25.0 °F 32.0 °F 99% 29.49 in 5.0 mi NE 8.1 mph - N/A   Light Drizzle
7:55 PM 32.0 °F 24.2 °F 32.0 °F 100% 29.48 in 7.0 mi NE 9.2 mph - N/A Snow Light Snow
8:15 PM 32.2 °F 25.0 °F 32.0 °F 99% 29.48 in 10.0 mi NE 8.1 mph - N/A   Overcast
8:35 PM 32.0 °F 24.8 °F 32.0 °F 100% 29.48 in 7.0 mi NE 8.1 mph - N/A Snow Light Snow
8:55 PM 32.0 °F 25.6 °F 32.0 °F 100% 29.48 in 10.0 mi NE 6.9 mph - N/A   Overcast
9:15 PM 32.0 °F 24.8 °F 32.0 °F 100% 29.48 in 7.0 mi NE 8.1 mph - N/A Snow Light Snow
9:35 PM 32.0 °F 25.6 °F 32.0 °F 100% 29.48 in 5.0 mi NE 6.9 mph - N/A   Overcast
9:55 PM 32.0 °F 26.4 °F 32.0 °F 100% 29.47 in 5.0 mi NNE 5.8 mph - N/A   Overcast
10:15 PM 32.0 °F 25.6 °F 32.0 °F 100% 29.47 in 4.0 mi NE 6.9 mph - N/A   Overcast
10:35 PM 32.0 °F 27.5 °F 32.0 °F 100% 29.47 in 4.0 mi NNE 4.6 mph - N/A   Overcast
10:55 PM 32.0 °F 27.5 °F 32.0 °F 100% 29.47 in 4.0 mi NNE 4.6 mph - N/A Rain Rain
11:15 PM 32.0 °F 28.7 °F 32.0 °F 100% 29.47 in 3.0 mi North 3.5 mph - N/A Snow Light Snow
11:35 PM 32.0 °F 28.7 °F 32.0 °F 100% 29.47 in 2.0 mi North 3.5 mph - N/A Snow Light Snow
11:55 PM 32.0 °F 28.7 °F 32.0 °F 100% 29.47 in 1.8 mi North 3.5 mph - N/A Snow Light Snow